Time;durP1;ratioP1;P1;durP2;ratioP2;P2;SDS_P1;SDS_P2;PMS_P1;PMS_P2;Temp;Humidity;BMP_temperature;BMP_pressure;BME280_temperature;BME280_humidity;BME280_pressure;Samples;Min_cycle;Max_cycle;Signal;HPM_P1;HPM_P2
2022/09/27 00:01:09;;;;;;;;;0.00;0.00;;;;;11.35;76.38;99680.13;5038180;28;9371;-67
2022/09/27 00:03:36;;;;;;;;;0.00;0.00;;;;;11.39;76.59;99675.94;5043906;28;9509;-66
2022/09/27 00:06:10;;;;;;;;;0.00;0.00;;;;;11.42;76.34;99665.75;5041588;28;9400;-66
2022/09/27 00:08:37;;;;;;;;;0.00;0.00;;;;;11.42;76.50;99671.13;5032268;28;9517;-66
2022/09/27 00:11:19;;;;;;;;;0.00;0.00;;;;;11.44;76.26;99672.56;5031782;28;9530;-67
2022/09/27 00:13:45;;;;;;;;;0.00;0.00;;;;;11.43;76.42;99670.09;5031765;28;9531;-64
2022/09/27 00:16:12;;;;;;;;;0.00;0.00;;;;;11.42;76.24;99669.25;5030262;28;9550;-66
2022/09/27 00:18:38;;;;;;;;;0.00;0.00;;;;;11.41;76.20;99670.31;5051398;28;9523;-67
2022/09/27 00:21:08;;;;;;;;;0.00;0.00;;;;;11.41;76.44;99670.31;5035193;28;9510;-67
2022/09/27 00:23:35;;;;;;;;;0.00;0.00;;;;;11.41;76.49;99666.78;5039928;28;9550;-66
2022/09/27 00:26:04;;;;;;;;;1.00;0.00;;;;;11.41;76.36;99674.88;5036341;28;9551;-65
2022/09/27 00:28:31;;;;;;;;;0.00;0.00;;;;;11.41;76.46;99664.09;5030809;28;9612;-67
2022/09/27 00:30:58;;;;;;;;;0.50;0.00;;;;;11.37;76.09;99669.94;5031389;28;9403;-67
2022/09/27 00:33:25;;;;;;;;;0.00;0.00;;;;;11.35;76.51;99671.25;5030116;28;9511;-66
2022/09/27 00:35:52;;;;;;;;;0.00;0.00;;;;;11.31;76.46;99670.03;5038412;28;9486;-67
2022/09/27 00:38:18;;;;;;;;;0.00;0.00;;;;;11.29;76.65;99675.66;5037951;28;9597;-66
2022/09/27 00:40:45;;;;;;;;;0.00;0.00;;;;;11.27;76.69;99680.44;5031175;28;9450;-66
2022/09/27 00:43:21;;;;;;;;;0.00;0.00;;;;;11.28;76.74;99681.28;5029220;28;10176;-66
2022/09/27 00:45:59;;;;;;;;;0.00;0.00;;;;;11.28;76.69;99684.78;5026889;28;9556;-66
2022/09/27 00:48:30;;;;;;;;;0.00;0.00;;;;;11.28;76.63;99682.09;5040791;28;10112;-67
2022/09/27 00:50:59;;;;;;;;;0.00;0.00;;;;;11.27;76.68;99680.44;5032510;28;9527;-67
2022/09/27 00:53:48;;;;;;;;;0.75;0.00;;;;;11.31;76.71;99678.94;5031489;28;9678;-66
2022/09/27 00:56:23;;;;;;;;;0.00;0.00;;;;;11.35;76.67;99682.84;5029340;28;9721;-67
2022/09/27 00:58:58;;;;;;;;;0.00;0.00;;;;;11.35;76.75;99682.00;5030886;28;9710;-67
2022/09/27 01:01:24;;;;;;;;;0.00;0.00;;;;;11.33;76.58;99682.22;5036707;28;9511;-67
2022/09/27 01:04:07;;;;;;;;;0.00;0.00;;;;;11.29;76.60;99683.72;5027364;28;9558;-65
2022/09/27 01:06:34;;;;;;;;;0.00;0.00;;;;;11.28;76.49;99682.09;5039212;28;9572;-66
2022/09/27 01:09:05;;;;;;;;;0.00;0.00;;;;;11.28;76.99;99690.16;5030785;28;9585;-66
2022/09/27 01:11:47;;;;;;;;;0.00;0.00;;;;;11.27;76.69;99690.41;5029317;28;9540;-66
2022/09/27 01:14:32;;;;;;;;;0.00;0.00;;;;;11.23;76.72;99692.72;5026622;28;9574;-64
2022/09/27 01:17:40;;;;;;;;;0.00;0.00;;;;;11.22;77.13;99690.25;5023714;28;9523;-66
2022/09/27 01:20:29;;;;;;;;;0.00;0.00;;;;;11.23;77.63;99692.72;5018728;28;10390;-66
2022/09/27 01:23:17;;;;;;;;;0.00;0.00;;;;;11.25;77.01;99697.88;5037687;28;10277;-66
2022/09/27 01:25:59;;;;;;;;;0.00;0.00;;;;;11.24;77.21;99688.16;5031248;28;9454;-66
2022/09/27 01:28:44;;;;;;;;;0.50;0.50;;;;;11.22;77.25;99672.25;5055586;28;9677;-64
2022/09/27 01:31:24;;;;;;;;;1.00;1.00;;;;;11.19;76.67;99682.63;5040210;28;9622;-67
2022/09/27 01:34:08;;;;;;;;;0.00;0.00;;;;;11.17;76.98;99693.63;5037356;28;9517;-66
2022/09/27 01:37:00;;;;;;;;;0.00;0.00;;;;;11.16;76.86;99691.16;5048120;28;9605;-66
2022/09/27 01:39:43;;;;;;;;;0.00;0.00;;;;;11.15;76.72;99687.66;5036522;28;9632;-66
2022/09/27 01:42:40;;;;;;;;;0.00;0.00;;;;;11.15;76.90;99693.03;5033521;28;10054;-65
2022/09/27 01:45:24;;;;;;;;;2.00;0.00;;;;;11.14;77.54;99686.84;5028985;28;9736;-67
2022/09/27 01:48:09;;;;;;;;;0.00;0.00;;;;;11.14;77.16;99686.84;5026810;28;10632;-67
2022/09/27 01:51:03;;;;;;;;;0.00;0.00;;;;;11.12;77.40;99688.09;5038417;28;9743;-67
2022/09/27 01:53:35;;;;;;;;;0.00;0.00;;;;;11.09;77.04;99686.66;5033069;28;9609;-67
2022/09/27 01:56:21;;;;;;;;;1.00;0.00;;;;;11.03;76.43;99684.06;5027384;28;9697;-65
2022/09/27 01:59:06;;;;;;;;;1.00;0.00;;;;;11.03;76.25;99686.78;5036493;28;9666;-66
2022/09/27 02:01:36;;;;;;;;;0.00;0.00;;;;;11.06;75.28;99683.59;5029396;28;9771;-66
2022/09/27 02:04:09;;;;;;;;;0.00;0.00;;;;;11.04;74.96;99691.91;5036680;28;9668;-67
2022/09/27 02:07:05;;;;;;;;;0.00;0.00;;;;;10.98;74.17;99686.59;5029670;28;9698;-64
2022/09/27 02:09:37;;;;;;;;;0.00;0.00;;;;;10.95;73.78;99684.38;5031503;28;9522;-67
2022/09/27 02:12:21;;;;;;;;;0.75;0.00;;;;;10.91;73.63;99683.19;5030687;28;9734;-67
2022/09/27 02:14:58;;;;;;;;;0.00;0.00;;;;;10.91;73.06;99691.25;5037011;28;9775;-67
2022/09/27 02:17:55;;;;;;;;;0.00;0.00;;;;;10.95;72.93;99681.69;5032397;28;9684;-67
2022/09/27 02:20:39;;;;;;;;;0.00;0.00;;;;;10.96;73.40;99688.72;5031993;28;10534;-67
2022/09/27 02:23:16;;;;;;;;;0.00;0.00;;;;;10.94;72.69;99683.56;5031372;28;9832;-67
2022/09/27 02:25:55;;;;;;;;;0.00;0.00;;;;;10.89;71.97;99686.91;5033088;28;9827;-66
2022/09/27 02:28:42;;;;;;;;;0.00;0.00;;;;;10.88;72.05;99684.44;5032098;28;9748;-66
2022/09/27 02:31:12;;;;;;;;;0.00;0.00;;;;;10.96;72.21;99675.25;5042730;28;9603;-67
2022/09/27 02:33:55;;;;;;;;;0.00;0.00;;;;;11.02;72.61;99668.94;5034152;28;9601;-67
2022/09/27 02:36:22;;;;;;;;;0.00;0.00;;;;;11.07;72.86;99672.63;5030800;28;9678;-67
2022/09/27 02:38:48;;;;;;;;;0.00;0.00;;;;;11.11;73.09;99686.47;5039481;28;9899;-67
2022/09/27 02:41:20;;;;;;;;;0.75;0.00;;;;;11.11;73.38;99683.78;5062819;28;9664;-67
2022/09/27 02:43:51;;;;;;;;;0.00;0.00;;;;;11.11;73.02;99659.53;5034150;28;9614;-67
2022/09/27 02:46:54;;;;;;;;;0.00;0.00;;;;;11.09;73.59;99661.59;5055412;28;9676;-64
2022/09/27 02:49:38;;;;;;;;;0.00;0.00;;;;;11.11;74.31;99656.84;5028989;28;9473;-66
2022/09/27 02:53:06;;;;;;;;;2.00;0.00;;;;;11.09;74.09;99658.91;5033414;28;9608;-67
2022/09/27 02:56:00;;;;;;;;;0.00;0.00;;;;;11.07;74.25;99664.53;5048186;28;9630;-66
2022/09/27 02:59:06;;;;;;;;;1.00;0.00;;;;;11.06;74.40;99667.44;5032638;28;9601;-63
2022/09/27 03:02:10;;;;;;;;;0.25;0.00;;;;;11.05;74.51;99674.69;5018915;28;9720;-66
2022/09/27 03:05:22;;;;;;;;;0.00;0.00;;;;;11.06;74.90;99679.06;5010473;28;9682;-66
2022/09/27 03:07:48;;;;;;;;;0.00;0.00;;;;;11.07;74.67;99678.00;5041690;28;9619;-67
2022/09/27 03:10:18;;;;;;;;;0.25;0.25;;;;;11.00;74.90;99671.88;5038688;28;9697;-67
2022/09/27 03:12:45;;;;;;;;;0.00;0.00;;;;;10.98;74.90;99676.69;5030766;28;9747;-67
2022/09/27 03:15:12;;;;;;;;;0.00;0.00;;;;;10.99;74.81;99672.94;5039931;28;9665;-67
2022/09/27 03:18:10;;;;;;;;;0.00;0.00;;;;;10.98;74.71;99675.81;5032662;28;9706;-65
2022/09/27 03:20:43;;;;;;;;;1.00;0.00;;;;;11.00;74.72;99674.56;5043911;28;9700;-66
2022/09/27 03:23:11;;;;;;;;;0.00;0.00;;;;;11.01;74.42;99678.91;5040458;28;9753;-64
2022/09/27 03:25:37;;;;;;;;;0.00;0.00;;;;;10.92;74.32;99676.75;5038935;28;9738;-66
2022/09/27 03:28:05;;;;;;;;;1.00;1.00;;;;;10.81;74.27;99686.38;5081500;22;9791;-64
2022/09/27 03:30:32;;;;;;;;;0.00;0.00;;;;;10.71;73.54;99673.44;5057559;28;9864;-64
2022/09/27 03:32:59;;;;;;;;;0.00;0.00;;;;;10.64;73.35;99680.78;5047685;28;9812;-64
2022/09/27 03:35:34;;;;;;;;;0.00;0.00;;;;;10.60;73.42;99684.94;5047518;28;9843;-64
2022/09/27 03:38:01;;;;;;;;;0.00;0.00;;;;;10.62;74.10;99686.38;5039475;28;9751;-64
2022/09/27 03:40:28;;;;;;;;;0.00;0.00;;;;;10.65;73.81;99682.41;5045713;28;10576;-65
2022/09/27 03:42:54;;;;;;;;;0.00;0.00;;;;;10.69;74.01;99683.59;5050378;28;10706;-64
2022/09/27 03:45:21;;;;;;;;;0.50;0.00;;;;;10.70;74.47;99669.13;5059406;28;10485;-65
2022/09/27 03:47:48;;;;;;;;;0.00;0.00;;;;;10.75;74.35;99682.72;5056233;28;9992;-64
2022/09/27 03:50:15;;;;;;;;;0.00;0.00;;;;;10.78;74.33;99670.69;5021171;28;9789;-64
2022/09/27 03:52:42;;;;;;;;;0.00;0.00;;;;;10.83;74.48;99668.97;5044261;28;9639;-66
2022/09/27 03:55:10;;;;;;;;;1.00;1.00;;;;;10.82;74.55;99670.03;5018964;28;10540;-64
2022/09/27 03:57:37;;;;;;;;;0.00;0.00;;;;;10.80;74.55;99674.78;5026000;28;9669;-65
2022/09/27 04:00:05;;;;;;;;;0.00;0.00;;;;;10.81;74.41;99681.00;5035241;28;9718;-63
2022/09/27 04:02:38;;;;;;;;;0.00;0.00;;;;;10.82;74.20;99674.59;5040012;28;9633;-64
2022/09/27 04:05:40;;;;;;;;;0.00;0.00;;;;;10.84;74.34;99677.88;5028134;28;9527;-64
2022/09/27 04:08:12;;;;;;;;;0.50;0.00;;;;;10.82;74.38;99667.34;5028252;28;9619;-61
2022/09/27 04:10:41;;;;;;;;;0.00;0.00;;;;;10.82;74.50;99678.09;5010817;28;9604;-63
2022/09/27 04:13:07;;;;;;;;;0.00;0.00;;;;;10.79;74.04;99675.84;5055316;28;9680;-63
2022/09/27 04:15:42;;;;;;;;;0.00;0.00;;;;;10.77;74.64;99682.50;5010801;28;9680;-64
2022/09/27 04:18:27;;;;;;;;;0.00;0.00;;;;;10.74;74.44;99691.03;5019958;28;9600;-64
2022/09/27 04:21:05;;;;;;;;;0.00;0.00;;;;;10.75;74.57;99693.50;5034121;28;9724;-65
2022/09/27 04:23:35;;;;;;;;;0.00;0.00;;;;;10.72;74.66;99688.56;5041302;28;9856;-64
2022/09/27 04:26:02;;;;;;;;;0.00;0.00;;;;;10.74;74.79;99708.00;5041363;28;9767;-64
2022/09/27 04:28:45;;;;;;;;;0.50;0.00;;;;;10.68;74.75;99698.13;5023044;28;9708;-64
2022/09/27 04:31:16;;;;;;;;;0.00;0.00;;;;;10.59;74.62;99700.28;5041687;28;9682;-64
2022/09/27 04:33:50;;;;;;;;;1.00;0.00;;;;;10.55;74.57;99687.50;5027150;28;10326;-64
2022/09/27 04:36:26;;;;;;;;;0.00;0.00;;;;;10.57;74.78;99686.25;5055955;28;9816;-62
2022/09/27 04:39:21;;;;;;;;;0.00;0.00;;;;;10.55;74.59;99680.25;5039879;28;9629;-64
2022/09/27 04:41:49;;;;;;;;;1.75;0.00;;;;;10.54;74.77;99669.72;5011171;28;9604;-65
2022/09/27 04:44:15;;;;;;;;;0.00;0.00;;;;;10.58;74.71;99666.34;5034906;28;9649;-65
2022/09/27 04:46:47;;;;;;;;;0.00;0.00;;;;;10.62;74.59;99667.53;5028480;28;10585;-64
2022/09/27 04:49:14;;;;;;;;;0.00;0.00;;;;;10.65;74.25;99668.94;5044421;28;9748;-64
2022/09/27 04:51:43;;;;;;;;;0.25;0.00;;;;;10.65;74.22;99663.56;5040319;28;9680;-65
2022/09/27 04:54:09;;;;;;;;;0.00;0.00;;;;;10.67;74.33;99669.56;5031340;28;9708;-65
2022/09/27 04:56:45;;;;;;;;;0.00;0.00;;;;;10.66;74.51;99678.69;5041280;28;9701;-64
2022/09/27 04:59:11;;;;;;;;;0.00;0.00;;;;;10.63;74.53;99673.75;5021189;28;9712;-64
2022/09/27 05:01:40;;;;;;;;;2.00;2.00;;;;;10.63;74.65;99665.69;5059360;28;9756;-66
2022/09/27 05:04:35;;;;;;;;;1.00;1.00;;;;;10.63;74.30;99671.06;5052215;28;9852;-63
2022/09/27 05:07:03;;;;;;;;;1.00;0.00;;;;;10.64;74.94;99678.91;5038992;28;9980;-66
2022/09/27 05:09:38;;;;;;;;;2.00;1.00;;;;;10.65;74.85;99685.09;5049241;28;9613;-66
2022/09/27 05:12:07;;;;;;;;;0.00;0.00;;;;;10.63;74.76;99676.44;5029325;28;9869;-63
2022/09/27 05:14:50;;;;;;;;;0.00;0.00;;;;;10.61;74.90;99681.19;5042771;28;10508;-65
2022/09/27 05:17:37;;;;;;;;;0.00;0.00;;;;;10.55;74.49;99682.09;5033468;28;10549;-65
2022/09/27 05:20:19;;;;;;;;;0.75;0.75;;;;;10.50;74.67;99682.78;5025668;28;9606;-65
2022/09/27 05:22:52;;;;;;;;;0.25;0.25;;;;;10.47;74.93;99685.09;5049491;28;9855;-64
2022/09/27 05:25:19;;;;;;;;;0.00;0.00;;;;;10.45;75.07;99681.78;5022259;28;9683;-65
2022/09/27 05:27:46;;;;;;;;;0.00;0.00;;;;;10.42;75.45;99683.06;5039857;28;9636;-65
2022/09/27 05:30:12;;;;;;;;;0.00;0.00;;;;;10.44;75.77;99693.59;5032540;28;9701;-65
2022/09/27 05:33:01;;;;;;;;;0.00;0.00;;;;;10.45;75.78;99700.63;5043194;28;9707;-65
2022/09/27 05:35:53;;;;;;;;;0.00;0.00;;;;;10.39;75.48;99695.09;5039416;28;9746;-64
2022/09/27 05:38:24;;;;;;;;;0.00;0.00;;;;;10.37;75.64;99697.19;5010157;28;10445;-63
2022/09/27 05:40:54;;;;;;;;;0.00;0.00;;;;;10.41;76.15;99694.84;5019307;28;9835;-64
2022/09/27 05:43:20;;;;;;;;;0.50;0.00;;;;;10.47;76.30;99706.63;5026870;28;9713;-65
2022/09/27 05:45:48;;;;;;;;;0.00;0.00;;;;;10.49;76.18;99708.06;5062329;28;9661;-63
2022/09/27 05:48:17;;;;;;;;;0.00;0.00;;;;;10.52;76.17;99710.28;5032690;28;9558;-64
2022/09/27 05:50:58;;;;;;;;;0.00;0.00;;;;;10.57;76.13;99715.00;5045581;28;10667;-64
2022/09/27 05:53:25;;;;;;;;;0.00;0.00;;;;;10.59;76.48;99707.53;5030055;28;9706;-64
2022/09/27 05:55:52;;;;;;;;;0.50;0.50;;;;;10.58;76.13;99693.25;5021842;28;9681;-63
2022/09/27 05:58:27;;;;;;;;;0.75;0.00;;;;;10.61;76.58;99702.72;5046709;28;9693;-63
2022/09/27 06:01:09;;;;;;;;;0.00;0.00;;;;;10.63;76.50;99706.03;5053376;28;9774;-63
2022/09/27 06:03:55;;;;;;;;;0.00;0.00;;;;;10.62;76.38;99707.91;5018633;28;10417;-63
2022/09/27 06:06:40;;;;;;;;;0.25;0.25;;;;;10.63;76.56;99716.81;5029646;28;9821;-63
2022/09/27 06:09:12;;;;;;;;;0.00;0.00;;;;;10.64;76.42;99718.44;5043482;28;9756;-64
2022/09/27 06:11:39;;;;;;;;;0.75;0.75;;;;;10.63;76.71;99722.19;5016707;28;9770;-63
2022/09/27 06:14:12;;;;;;;;;0.00;0.00;;;;;10.65;76.69;99722.78;5053244;28;9691;-63
2022/09/27 06:16:53;;;;;;;;;2.00;0.75;;;;;10.65;77.22;99722.78;5027324;28;9664;-65
2022/09/27 06:19:23;;;;;;;;;1.00;1.00;;;;;10.70;78.00;99717.56;5043954;28;10020;-57
2022/09/27 06:21:49;;;;;;;;;0.50;0.50;;;;;11.06;79.75;99732.06;5050916;28;9977;-62
2022/09/27 06:24:16;;;;;;;;;0.25;0.00;;;;;11.06;77.76;99724.84;5027641;28;9694;-65
2022/09/27 06:26:44;;;;;;;;;0.00;0.00;;;;;10.99;76.86;99721.41;5040483;28;9686;-64
2022/09/27 06:29:24;;;;;;;;;0.00;0.00;;;;;10.90;76.35;99720.06;5039542;28;9682;-65
2022/09/27 06:31:58;;;;;;;;;0.00;0.00;;;;;10.87;77.13;99718.63;5038063;28;9625;-64
2022/09/27 06:34:33;;;;;;;;;0.00;0.00;;;;;10.88;76.44;99722.13;5039379;28;10424;-63
2022/09/27 06:36:59;;;;;;;;;0.00;0.00;;;;;10.85;76.62;99730.66;5027633;28;9628;-61
2022/09/27 06:39:27;;;;;;;;;0.00;0.00;;;;;10.82;76.92;99723.88;5026065;28;9747;-62
2022/09/27 06:42:22;;;;;;;;;0.00;0.00;;;;;10.80;76.87;99722.44;5024781;28;9623;-64
2022/09/27 06:45:02;;;;;;;;;0.00;0.00;;;;;10.76;76.68;99724.75;5023567;28;9625;-64
2022/09/27 06:47:47;;;;;;;;;0.00;0.00;;;;;10.71;76.91;99735.34;5023337;28;9790;-63
2022/09/27 06:50:34;;;;;;;;;0.00;0.00;;;;;10.68;77.00;99729.59;5038737;28;9601;-64
2022/09/27 06:53:01;;;;;;;;;1.25;1.00;;;;;10.67;77.12;99725.25;5023325;28;9763;-63
2022/09/27 06:55:28;;;;;;;;;0.50;0.50;;;;;10.70;77.43;99717.56;5022911;28;9597;-63
2022/09/27 07:01:03;;;;;;;;;0.00;0.00;;;;;10.73;77.33;99722.47;5024345;28;9748;-64
2022/09/27 07:03:50;;;;;;;;;0.00;0.00;;;;;10.74;77.46;99724.16;5040654;28;9855;-63
2022/09/27 07:06:27;;;;;;;;;0.25;0.25;;;;;10.79;77.86;99728.88;5048915;28;9683;-62
2022/09/27 07:09:00;;;;;;;;;0.00;0.00;;;;;10.82;77.83;99731.13;5031529;28;9844;-65
2022/09/27 07:11:27;;;;;;;;;0.00;0.00;;;;;10.85;77.80;99728.78;5031041;28;9744;-65
2022/09/27 07:13:55;;;;;;;;;0.00;0.00;;;;;10.87;78.21;99729.41;5051108;28;9922;-63
2022/09/27 07:16:21;;;;;;;;;2.00;0.75;;;;;10.88;78.27;99735.59;5058986;28;9843;-65
2022/09/27 07:18:49;;;;;;;;;0.00;0.00;;;;;10.93;78.06;99734.91;5037776;28;9864;-64
2022/09/27 07:21:15;;;;;;;;;0.00;0.00;;;;;10.96;78.21;99743.38;5031970;28;9776;-64
2022/09/27 07:23:42;;;;;;;;;1.00;1.00;;;;;10.97;78.47;99744.19;5047423;28;9741;-64
2022/09/27 07:26:11;;;;;;;;;0.75;0.00;;;;;10.96;78.21;99742.56;5047179;28;9661;-63
2022/09/27 07:28:40;;;;;;;;;0.00;0.00;;;;;10.99;77.86;99748.31;5044187;28;9777;-64
2022/09/27 07:31:08;;;;;;;;;0.00;0.00;;;;;11.00;77.92;99743.75;5019876;28;9773;-64
2022/09/27 07:33:34;;;;;;;;;0.50;0.00;;;;;11.01;77.98;99740.84;5055807;28;9610;-64
2022/09/27 07:36:08;;;;;;;;;1.25;1.00;;;;;11.04;78.33;99744.97;5036489;28;9693;-64
2022/09/27 07:38:39;;;;;;;;;1.00;0.00;;;;;11.01;77.91;99745.41;5025802;28;9856;-63
2022/09/27 07:41:12;;;;;;;;;0.00;0.00;;;;;11.03;77.88;99744.13;5046895;28;9595;-65
2022/09/27 07:43:41;;;;;;;;;2.00;0.00;;;;;11.05;77.89;99746.59;5027983;28;9663;-62
2022/09/27 07:46:07;;;;;;;;;4.00;1.00;;;;;11.09;78.07;99764.78;5030131;28;9610;-63
2022/09/27 07:49:09;;;;;;;;;1.00;1.00;;;;;11.06;77.64;99775.16;5037407;28;9617;-63
2022/09/27 07:51:50;;;;;;;;;0.25;0.00;;;;;11.03;78.01;99771.06;5015302;28;9761;-63
2022/09/27 07:54:39;;;;;;;;;0.00;0.00;;;;;10.94;77.21;99785.88;5030423;28;9623;-64
2022/09/27 07:57:31;;;;;;;;;0.00;0.00;;;;;10.78;77.21;99779.19;5029933;28;9670;-65
2022/09/27 07:59:59;;;;;;;;;0.25;0.25;;;;;10.73;77.91;99780.88;5046678;28;9648;-65
2022/09/27 08:02:26;;;;;;;;;0.00;0.00;;;;;10.61;77.41;99765.47;5046683;28;9625;-64
2022/09/27 08:04:53;;;;;;;;;0.00;0.00;;;;;10.61;77.47;99772.69;5060142;28;9673;-64
2022/09/27 08:07:22;;;;;;;;;0.25;0.25;;;;;10.62;77.59;99777.88;5042132;28;9695;-64
2022/09/27 08:09:52;;;;;;;;;0.00;0.00;;;;;10.63;76.97;99770.63;5026962;28;9784;-63
2022/09/27 08:12:20;;;;;;;;;0.00;0.00;;;;;10.68;77.34;99769.97;5013754;28;9783;-63
2022/09/27 08:14:48;;;;;;;;;0.00;0.00;;;;;10.72;77.03;99769.28;5030103;28;10720;-64
2022/09/27 08:17:16;;;;;;;;;0.00;0.00;;;;;10.75;76.85;99785.00;5046035;28;9820;-64
2022/09/27 08:20:04;;;;;;;;;0.00;0.00;;;;;10.77;76.66;99776.69;5030979;28;9832;-63
2022/09/27 08:22:49;;;;;;;;;0.00;0.00;;;;;10.75;77.12;99781.50;5038327;28;9666;-64
2022/09/27 08:25:30;;;;;;;;;0.00;0.00;;;;;10.76;77.04;99785.84;5052759;28;9755;-64
2022/09/27 08:28:03;;;;;;;;;0.00;0.00;;;;;10.76;77.45;99801.97;5029684;28;9710;-64
2022/09/27 08:30:34;;;;;;;;;0.00;0.00;;;;;10.78;77.13;99816.88;5012936;28;9592;-65
2022/09/27 08:33:02;;;;;;;;;0.00;0.00;;;;;10.80;77.10;99817.47;5032384;28;9807;-64
2022/09/27 08:35:30;;;;;;;;;0.00;0.00;;;;;10.83;77.55;99817.03;5029907;28;9874;-65
2022/09/27 08:37:59;;;;;;;;;0.50;0.00;;;;;10.83;77.25;99811.66;5029621;28;9698;-65
2022/09/27 08:40:55;;;;;;;;;0.00;0.00;;;;;10.84;77.06;99810.59;5031028;28;9710;-65
2022/09/27 08:43:47;;;;;;;;;0.00;0.00;;;;;10.80;77.37;99803.19;5051858;28;9602;-63
2022/09/27 08:46:43;;;;;;;;;0.00;0.00;;;;;10.78;77.37;99799.91;5035202;28;9845;-65
2022/09/27 08:49:16;;;;;;;;;0.00;0.00;;;;;10.76;77.19;99802.81;5030812;28;9853;-64
2022/09/27 08:51:46;;;;;;;;;1.00;0.00;;;;;10.78;77.04;99806.09;5029829;28;9661;-65
2022/09/27 08:54:20;;;;;;;;;0.00;0.00;;;;;10.82;77.40;99804.63;5045788;28;10332;-64
2022/09/27 08:56:51;;;;;;;;;1.00;0.00;;;;;10.84;77.02;99805.22;5045085;28;9710;-65
2022/09/27 08:59:28;;;;;;;;;0.00;0.00;;;;;10.85;77.41;99806.84;5027943;28;10496;-63
2022/09/27 09:01:55;;;;;;;;;0.00;0.00;;;;;10.85;77.31;99806.03;5028636;28;9742;-64
2022/09/27 09:04:32;;;;;;;;;2.50;0.00;;;;;10.84;77.20;99807.91;5047805;28;9814;-64
2022/09/27 09:07:08;;;;;;;;;0.00;0.00;;;;;10.87;77.38;99804.78;5057537;28;9705;-65
2022/09/27 09:13:51;;;;;;;;;0.75;0.75;;;;;10.93;76.87;99835.38;5031065;28;9724;-61
2022/09/27 09:16:35;;;;;;;;;0.00;0.00;;;;;10.89;77.42;99840.38;5042337;28;9864;-62
2022/09/27 09:19:05;;;;;;;;;1.50;0.00;;;;;10.86;77.47;99845.41;5029069;28;9786;-66
2022/09/27 09:22:06;;;;;;;;;1.50;0.00;;;;;10.80;77.58;99839.00;5028626;28;9709;-63
2022/09/27 09:25:02;;;;;;;;;0.00;0.00;;;;;10.79;77.50;99850.00;5044897;28;9583;-65
2022/09/27 09:28:00;;;;;;;;;0.00;0.00;;;;;10.74;77.32;99856.03;5043789;28;9807;-67
2022/09/27 09:30:56;;;;;;;;;0.50;0.50;;;;;10.69;77.66;99845.09;5045280;28;9823;-67
2022/09/27 09:33:28;;;;;;;;;0.00;0.00;;;;;10.66;77.58;99845.56;5028553;28;9742;-67
2022/09/27 09:36:25;;;;;;;;;0.50;0.50;;;;;10.45;77.46;99840.50;5008900;28;9598;-67
2022/09/27 09:38:57;;;;;;;;;0.00;0.00;;;;;10.39;77.97;99836.84;5033485;28;10627;-67
2022/09/27 09:41:33;;;;;;;;;4.00;0.75;;;;;10.38;78.19;99827.94;5044214;28;9772;-66
2022/09/27 09:44:13;;;;;;;;;1.25;0.00;;;;;10.36;77.38;99831.88;5029498;28;9733;-67
2022/09/27 09:46:44;;;;;;;;;0.00;0.00;;;;;10.32;77.92;99818.03;5027908;28;9825;-66
2022/09/27 09:49:24;;;;;;;;;0.00;0.00;;;;;10.32;77.84;99817.22;5028550;28;9735;-66
2022/09/27 09:51:55;;;;;;;;;0.00;0.00;;;;;10.31;78.17;99808.34;5028044;28;9684;-65
2022/09/27 09:54:30;;;;;;;;;0.00;0.00;;;;;10.35;77.93;99804.16;5032396;28;9601;-65
2022/09/27 09:57:10;;;;;;;;;0.00;0.00;;;;;10.37;77.72;99803.94;5026447;28;9534;-65
2022/09/27 09:59:41;;;;;;;;;0.00;0.00;;;;;10.41;77.83;99805.16;5046726;28;9754;-66
2022/09/27 10:02:30;;;;;;;;;0.00;0.00;;;;;10.41;77.64;99789.00;5026000;28;9613;-65
2022/09/27 10:05:04;;;;;;;;;0.00;0.00;;;;;10.46;78.00;99786.50;5038338;28;9701;-65
2022/09/27 10:07:38;;;;;;;;;0.00;0.00;;;;;10.55;77.64;99795.13;5036313;28;9737;-64
2022/09/27 10:10:06;;;;;;;;;0.00;0.00;;;;;10.60;77.59;99800.66;5059239;28;10279;-65
2022/09/27 10:12:51;;;;;;;;;0.00;0.00;;;;;10.65;77.87;99803.50;5035450;28;9619;-66
2022/09/27 10:15:25;;;;;;;;;1.00;0.00;;;;;10.67;77.66;99803.31;5045357;28;9826;-66
2022/09/27 10:17:57;;;;;;;;;1.50;0.00;;;;;10.68;77.71;99804.94;5035959;28;9667;-66
2022/09/27 10:20:31;;;;;;;;;1.00;0.00;;;;;10.64;77.80;99802.69;5031820;28;9601;-68
2022/09/27 10:23:08;;;;;;;;;0.00;0.00;;;;;10.66;77.83;99796.28;5044642;28;10642;-66
2022/09/27 10:25:59;;;;;;;;;0.00;0.00;;;;;10.68;77.70;99796.88;5053695;28;9821;-66
2022/09/27 10:28:42;;;;;;;;;0.00;0.00;;;;;10.69;77.62;99801.22;5047975;28;9835;-66
2022/09/27 10:31:12;;;;;;;;;0.00;0.00;;;;;10.71;77.54;99804.50;5024447;28;9682;-66
2022/09/27 10:34:04;;;;;;;;;0.00;0.00;;;;;10.69;77.76;99814.66;5032238;28;9665;-66
2022/09/27 10:36:37;;;;;;;;;1.25;0.00;;;;;10.67;77.53;99820.28;5035406;28;10461;-65
2022/09/27 10:39:05;;;;;;;;;0.00;0.00;;;;;10.63;77.73;99813.69;5037680;28;9770;-68
2022/09/27 10:41:44;;;;;;;;;0.00;0.00;;;;;10.61;77.63;99823.84;5037076;28;9749;-65
2022/09/27 10:44:25;;;;;;;;;0.00;0.00;;;;;10.57;77.62;99825.31;5036740;28;9691;-65
2022/09/27 10:47:22;;;;;;;;;0.25;0.25;;;;;10.54;77.76;99826.59;5039848;28;9613;-65
2022/09/27 10:50:16;;;;;;;;;0.00;0.00;;;;;10.55;77.65;99825.53;5036767;28;9721;-65
2022/09/27 10:53:18;;;;;;;;;0.00;0.00;;;;;10.48;77.88;99813.19;5056102;28;9865;-65
2022/09/27 10:55:52;;;;;;;;;0.75;0.00;;;;;10.48;78.02;99811.31;5042231;28;9746;-65
2022/09/27 10:58:36;;;;;;;;;0.00;0.00;;;;;10.52;78.60;99814.41;5029713;28;10604;-65
2022/09/27 11:01:11;;;;;;;;;0.00;0.00;;;;;10.55;78.83;99812.09;5052177;28;9743;-66
2022/09/27 11:04:03;;;;;;;;;0.00;0.00;;;;;10.58;78.39;99810.84;5036806;28;9755;-64
2022/09/27 11:06:36;;;;;;;;;0.00;0.00;;;;;10.58;78.45;99803.59;5046395;28;9735;-65
2022/09/27 11:09:28;;;;;;;;;0.00;0.00;;;;;10.63;78.61;99808.31;5046738;28;9833;-65
2022/09/27 11:12:13;;;;;;;;;0.00;0.00;;;;;10.61;78.28;99810.38;5039446;28;9740;-65
2022/09/27 11:14:55;;;;;;;;;0.00;0.00;;;;;10.62;78.73;99817.44;5048654;28;9726;-66
2022/09/27 11:17:29;;;;;;;;;0.00;0.00;;;;;10.61;78.12;99830.06;5029476;28;9954;-64
2022/09/27 11:20:05;;;;;;;;;0.00;0.00;;;;;10.58;78.46;99830.50;5032212;28;10357;-65
2022/09/27 11:22:55;;;;;;;;;1.50;0.00;;;;;10.60;78.16;99831.09;5034402;28;9762;-66
2022/09/27 11:26:04;;;;;;;;;1.00;0.00;;;;;10.60;78.67;99832.97;5040442;28;9606;-65
2022/09/27 11:28:56;;;;;;;;;1.50;0.00;;;;;10.63;78.39;99825.28;5065066;28;9844;-65
2022/09/27 11:32:38;;;;;;;;;0.25;0.25;;;;;10.74;79.20;99821.06;5027532;28;9737;-65
2022/09/27 11:35:47;;;;;;;;;0.00;0.00;;;;;10.76;78.56;99818.94;5027324;28;9743;-66
2022/09/27 11:38:37;;;;;;;;;0.00;0.00;;;;;10.78;78.69;99816.06;5054808;28;9678;-66
2022/09/27 11:41:40;;;;;;;;;0.00;0.00;;;;;10.79;78.81;99813.13;5037937;28;9746;-64
2022/09/27 11:44:20;;;;;;;;;0.00;0.00;;;;;10.83;78.70;99821.59;5047960;28;9686;-66
2022/09/27 11:47:00;;;;;;;;;0.00;0.00;;;;;10.83;78.55;99817.03;5029590;28;9605;-66
2022/09/27 11:49:44;;;;;;;;;0.00;0.00;;;;;10.81;78.56;99812.91;5030226;28;9946;-64
2022/09/27 11:52:38;;;;;;;;;0.75;0.00;;;;;10.77;78.20;99809.81;5042364;28;9707;-66
2022/09/27 11:55:14;;;;;;;;;1.00;0.00;;;;;10.76;78.57;99800.09;5027378;28;9688;-65
2022/09/27 11:57:49;;;;;;;;;0.00;0.00;;;;;10.75;78.85;99809.22;5045495;28;9698;-66
2022/09/27 12:00:33;;;;;;;;;7.25;5.00;;;;;10.70;79.13;99819.03;5027345;28;9624;-66
2022/09/27 12:03:24;;;;;;;;;0.00;0.00;;;;;10.65;78.83;99822.34;5024977;28;9795;-65
2022/09/27 12:06:12;;;;;;;;;0.00;0.00;;;;;10.60;78.75;99814.94;5022610;28;9621;-64
2022/09/27 12:08:57;;;;;;;;;0.00;0.00;;;;;10.54;79.43;99813.16;5047599;28;9702;-65
2022/09/27 12:11:29;;;;;;;;;1.00;0.00;;;;;10.49;79.35;99815.66;5041874;28;9621;-65
2022/09/27 12:14:07;;;;;;;;;0.00;0.00;;;;;10.50;79.45;99824.56;5024233;28;9816;-65
2022/09/27 12:16:38;;;;;;;;;0.00;0.00;;;;;10.48;79.30;99829.31;5040918;28;9540;-65
2022/09/27 12:19:23;;;;;;;;;0.25;0.25;;;;;10.42;79.03;99831.03;5042592;28;9654;-65
2022/09/27 12:22:03;;;;;;;;;3.00;2.00;;;;;10.36;79.46;99821.94;5026306;28;10443;-65
2022/09/27 12:24:33;;;;;;;;;0.00;0.00;;;;;10.33;79.17;99829.63;5026230;28;9896;-65
2022/09/27 12:27:25;;;;;;;;;0.00;0.00;;;;;10.29;79.29;99831.97;5042031;28;10579;-65
2022/09/27 12:29:55;;;;;;;;;0.00;0.00;;;;;10.27;79.49;99815.19;5024876;28;9835;-66
2022/09/27 12:33:10;;;;;;;;;1.00;0.00;;;;;10.32;79.40;99819.91;5027841;28;9923;-63
2022/09/27 12:35:49;;;;;;;;;0.00;0.00;;;;;10.31;79.39;99799.44;5023854;28;9830;-67
2022/09/27 12:38:41;;;;;;;;;0.00;0.00;;;;;10.33;79.36;99803.56;5025587;28;9743;-65